createdAt,value
2022-09-07T00:00:57.839Z,95783.13
2022-09-07T00:03:26.427Z,95793.94
2022-09-07T00:05:54.404Z,95786.78
2022-09-07T00:08:24.916Z,95783.22
2022-09-07T00:10:54.799Z,95772.00
2022-09-07T00:13:24.973Z,95777.69
2022-09-07T00:15:53.273Z,95785.84
2022-09-07T00:18:21.437Z,95795.50
2022-09-07T00:20:59.151Z,95786.91
2022-09-07T00:23:28.268Z,95789.63
2022-09-07T00:26:00.722Z,95783.47
2022-09-07T00:28:30.179Z,95784.00
2022-09-07T00:30:58.273Z,95781.09
2022-09-07T00:33:26.547Z,95756.56
2022-09-07T00:35:54.559Z,95774.25
2022-09-07T00:38:22.599Z,95774.41
2022-09-07T00:40:50.551Z,95776.84
2022-09-07T00:43:32.340Z,95779.94
2022-09-07T00:46:00.720Z,95783.78
2022-09-07T00:48:32.679Z,95790.91
2022-09-07T00:51:04.137Z,95787.75
2022-09-07T00:53:34.311Z,95785.47
2022-09-07T00:56:03.658Z,95786.88
2022-09-07T00:58:35.547Z,95779.84
2022-09-07T01:01:03.457Z,95744.97
2022-09-07T01:03:34.395Z,95783.91
2022-09-07T01:06:07.922Z,95769.25
2022-09-07T01:08:37.160Z,95775.22
2022-09-07T01:11:05.182Z,95771.72
2022-09-07T01:13:34.680Z,95769.69
2022-09-07T01:16:14.083Z,95671.19
2022-09-07T01:18:53.730Z,95771.88
2022-09-07T01:21:28.243Z,95768.28
2022-09-07T01:24:40.433Z,95770.22
2022-09-07T01:27:40.927Z,95763.22
2022-09-07T01:30:10.433Z,95759.16
2022-09-07T01:33:02.428Z,95765.66
2022-09-07T01:35:40.124Z,95723.78
2022-09-07T01:38:16.500Z,95764.34
2022-09-07T01:40:50.400Z,95760.28
2022-09-07T01:43:32.343Z,95760.63
2022-09-07T01:46:04.516Z,95764.94
2022-09-07T01:48:34.907Z,95754.31
2022-09-07T01:51:04.577Z,95766.88
2022-09-07T01:53:36.441Z,95769.91
2022-09-07T01:56:09.023Z,95766.75
2022-09-07T01:58:43.411Z,95765.97
2022-09-07T02:01:15.317Z,95762.81
2022-09-07T02:03:47.993Z,95755.72
2022-09-07T02:06:20.415Z,95750.97
2022-09-07T02:08:52.870Z,95755.53
2022-09-07T02:11:24.852Z,95752.81
2022-09-07T02:13:56.731Z,95747.47
2022-09-07T02:16:28.216Z,95755.09
2022-09-07T02:18:58.344Z,95742.56
2022-09-07T02:21:32.724Z,95746.41
2022-09-07T02:24:06.912Z,95759.13
2022-09-07T02:26:38.087Z,95747.63
2022-09-07T02:29:08.036Z,95738.84
2022-09-07T02:31:36.134Z,95753.31
2022-09-07T02:34:04.376Z,95751.63
2022-09-07T02:36:38.520Z,95744.59
2022-09-07T02:39:06.485Z,95740.84
2022-09-07T02:41:37.101Z,95735.88
2022-09-07T02:44:10.464Z,95741.81
2022-09-07T02:46:53.351Z,95742.25
2022-09-07T02:49:52.253Z,95753.81
2022-09-07T02:52:28.780Z,95754.28
2022-09-07T02:55:06.540Z,95761.19
2022-09-07T02:57:43.352Z,95765.44
2022-09-07T03:00:17.997Z,95762.50
2022-09-07T03:02:53.297Z,95759.09
2022-09-07T03:05:25.334Z,95760.91
2022-09-07T03:08:01.213Z,95764.53
2022-09-07T03:10:29.985Z,95758.66
2022-09-07T03:12:57.876Z,95731.25
2022-09-07T03:15:28.897Z,95761.53
2022-09-07T03:17:56.844Z,95759.56
2022-09-07T03:20:24.881Z,95763.19
2022-09-07T03:22:53.528Z,95715.22
2022-09-07T03:25:23.116Z,95752.34
2022-09-07T03:27:50.992Z,95755.38
2022-09-07T03:30:18.891Z,95740.97
2022-09-07T03:32:48.198Z,95769.34
2022-09-07T03:35:16.195Z,95766.19
2022-09-07T03:37:44.085Z,95770.69
2022-09-07T03:40:13.927Z,95777.56
2022-09-07T03:42:42.668Z,95760.91
2022-09-07T03:45:11.876Z,95768.81
2022-09-07T03:47:39.907Z,95769.94
2022-09-07T03:50:09.973Z,95774.06
2022-09-07T03:52:38.304Z,95777.38
2022-09-07T03:55:06.980Z,95783.81
2022-09-07T03:57:35.032Z,95779.75
2022-09-07T04:00:03.424Z,95766.88
2022-09-07T04:02:31.463Z,95792.00
2022-09-07T04:04:59.608Z,95785.66
2022-09-07T04:07:28.854Z,95779.38
2022-09-07T04:09:57.084Z,95781.94
2022-09-07T04:12:26.124Z,95779.56
2022-09-07T04:14:54.050Z,95781.59
2022-09-07T04:17:21.915Z,95792.34
2022-09-07T04:19:49.824Z,95791.28
2022-09-07T04:22:17.710Z,95789.41
2022-09-07T04:24:46.964Z,95789.50
2022-09-07T04:27:14.863Z,95793.16
2022-09-07T04:29:42.724Z,95790.28
2022-09-07T04:32:15.571Z,95781.91
2022-09-07T04:34:43.788Z,95786.78
2022-09-07T04:37:12.588Z,95796.66
2022-09-07T04:39:40.554Z,95796.28
2022-09-07T04:42:09.864Z,95798.22
2022-09-07T04:44:37.780Z,95784.25
2022-09-07T04:47:05.777Z,95790.91
2022-09-07T04:49:33.653Z,95789.13
2022-09-07T04:52:01.599Z,95796.06
2022-09-07T04:54:29.476Z,95803.41
2022-09-07T04:56:57.420Z,95801.69
2022-09-07T04:59:26.724Z,95795.00
2022-09-07T05:01:54.693Z,95813.00
2022-09-07T05:04:22.640Z,95801.03
2022-09-07T05:06:50.535Z,95803.13
2022-09-07T05:09:18.434Z,95802.47
2022-09-07T05:11:46.331Z,95806.28
2022-09-07T05:14:14.188Z,95804.59
2022-09-07T05:16:43.494Z,95790.00
2022-09-07T05:19:13.218Z,95783.75
2022-09-07T05:21:41.369Z,95801.34
2022-09-07T05:24:09.280Z,95805.59
2022-09-07T05:26:39.423Z,95800.66
2022-09-07T05:31:58.595Z,95799.28
2022-09-07T05:36:59.956Z,95805.59
2022-09-07T05:39:28.621Z,95804.78
2022-09-07T05:41:56.527Z,95799.28
2022-09-07T05:47:14.182Z,95805.34
2022-09-07T05:49:42.089Z,95796.56
2022-09-07T05:52:10.495Z,95801.75
2022-09-07T05:54:38.465Z,95796.88
2022-09-07T05:57:07.333Z,95794.13
2022-09-07T05:59:35.337Z,95797.66
2022-09-07T06:02:03.414Z,95801.50
2022-09-07T06:04:32.784Z,95806.88
2022-09-07T06:12:36.893Z,95810.78
2022-09-07T06:15:06.010Z,95798.19
2022-09-07T06:17:34.045Z,95801.88
2022-09-07T06:20:04.186Z,95810.03
2022-09-07T06:22:32.176Z,95805.78
2022-09-07T06:25:00.356Z,95791.94
2022-09-07T06:27:28.312Z,95809.63
2022-09-07T06:29:56.481Z,95803.78
2022-09-07T06:35:14.661Z,95800.63
2022-09-07T06:37:42.661Z,95813.97
2022-09-07T06:40:12.090Z,95791.88
2022-09-07T06:42:40.610Z,95808.97
2022-09-07T06:45:11.035Z,95791.44
2022-09-07T06:47:39.135Z,95805.50
2022-09-07T06:50:07.835Z,95810.03
2022-09-07T06:55:27.668Z,95816.22
2022-09-07T06:57:55.768Z,95811.53
2022-09-07T07:00:23.751Z,95825.38
2022-09-07T07:02:51.808Z,95825.03
2022-09-07T07:05:19.719Z,95804.72
2022-09-07T07:07:48.962Z,95823.63
2022-09-07T07:10:19.708Z,95825.56
2022-09-07T07:12:50.197Z,95820.16
2022-09-07T07:15:18.060Z,95827.06
2022-09-07T07:17:48.030Z,95820.66
2022-09-07T07:20:19.924Z,95814.13
2022-09-07T07:22:52.656Z,95787.78
2022-09-07T07:25:21.169Z,95815.94
2022-09-07T07:27:49.533Z,95817.91
2022-09-07T07:30:19.443Z,95809.19
2022-09-07T07:32:48.061Z,95768.50
2022-09-07T07:35:16.420Z,95798.75
2022-09-07T07:37:44.371Z,95807.69
2022-09-07T07:40:15.588Z,95823.63
2022-09-07T07:42:44.934Z,95816.13
2022-09-07T07:48:01.294Z,95822.50
2022-09-07T07:50:31.074Z,95822.25
2022-09-07T07:55:49.150Z,95829.03
2022-09-07T07:58:17.194Z,95830.94
2022-09-07T08:01:00.732Z,95822.47
2022-09-07T08:03:29.121Z,95828.59
2022-09-07T08:05:57.625Z,95822.19
2022-09-07T08:08:25.507Z,95816.47
2022-09-07T08:10:55.142Z,95824.31
2022-09-07T08:13:22.979Z,95825.72
2022-09-07T08:15:50.896Z,95825.63
2022-09-07T08:18:18.983Z,95821.50
2022-09-07T08:20:46.836Z,95814.47
2022-09-07T08:23:15.436Z,95804.19
2022-09-07T08:25:51.074Z,95823.06
2022-09-07T08:28:20.428Z,95812.31
2022-09-07T08:30:48.632Z,95813.94
2022-09-07T08:33:17.013Z,95817.66
2022-09-07T08:35:54.523Z,95772.81
2022-09-07T08:38:22.366Z,95808.81
2022-09-07T08:40:50.535Z,95805.94
2022-09-07T08:43:29.152Z,95790.56
2022-09-07T08:46:01.839Z,95787.22
2022-09-07T08:48:33.653Z,95791.78
2022-09-07T08:51:07.941Z,95795.66
2022-09-07T08:53:38.659Z,95793.66
2022-09-07T08:56:10.727Z,95784.94
2022-09-07T08:58:49.311Z,95781.59
2022-09-07T09:01:35.755Z,95781.91
2022-09-07T09:04:22.491Z,95773.44
2022-09-07T09:07:11.564Z,95774.69
2022-09-07T09:09:51.848Z,95722.81
2022-09-07T09:12:36.871Z,95765.25
2022-09-07T09:15:18.311Z,95746.16
2022-09-07T09:17:52.560Z,95757.50
2022-09-07T09:20:27.565Z,95761.94
2022-09-07T09:23:02.066Z,95754.88
2022-09-07T09:25:34.626Z,95755.81
2022-09-07T09:28:02.998Z,95761.66
2022-09-07T09:30:32.195Z,95744.25
2022-09-07T09:33:17.037Z,95748.66
2022-09-07T09:35:46.532Z,95737.44
2022-09-07T09:38:31.294Z,95746.41
2022-09-07T09:41:01.744Z,95737.34
2022-09-07T09:43:38.119Z,95712.06
2022-09-07T09:46:19.127Z,95740.53
2022-09-07T09:48:54.676Z,95690.28
2022-09-07T09:54:24.717Z,95733.59
2022-09-07T09:56:53.516Z,95725.53
2022-09-07T10:05:29.638Z,95723.44
2022-09-07T10:07:57.972Z,95715.69
2022-09-07T10:10:28.211Z,95702.47
2022-09-07T10:12:57.412Z,95716.63
2022-09-07T10:15:40.176Z,95720.31
2022-09-07T10:18:21.267Z,95703.94
2022-09-07T10:20:49.541Z,95702.78
2022-09-07T10:23:25.381Z,95698.63
2022-09-07T10:25:53.528Z,95692.97
2022-09-07T10:28:24.803Z,95698.72
2022-09-07T10:31:11.034Z,95690.66
2022-09-07T10:36:49.648Z,95680.66
2022-09-07T10:39:23.789Z,95666.94
2022-09-07T10:42:01.361Z,95675.63
2022-09-07T10:44:46.517Z,95671.00
2022-09-07T10:47:25.994Z,95656.00
2022-09-07T10:52:56.359Z,95671.47
2022-09-07T10:55:32.705Z,95671.97
2022-09-07T10:58:16.207Z,95662.56
2022-09-07T11:00:53.393Z,95664.03
2022-09-07T11:03:37.545Z,95661.34
2022-09-07T11:06:16.168Z,95661.56
2022-09-07T11:09:16.310Z,95653.75
2022-09-07T11:12:04.072Z,95535.38
2022-09-07T11:14:38.025Z,95644.16
2022-09-07T11:17:14.192Z,95648.63
2022-09-07T11:19:47.927Z,95635.97
2022-09-07T11:22:43.294Z,95649.91
2022-09-07T11:25:35.362Z,95623.22
2022-09-07T11:28:09.950Z,95626.81
2022-09-07T11:30:43.871Z,95627.38
2022-09-07T11:33:18.580Z,95625.91
2022-09-07T11:35:51.633Z,95627.69
2022-09-07T11:38:26.678Z,95614.81
2022-09-07T11:41:17.496Z,95621.78
2022-09-07T11:43:48.232Z,95621.59
2022-09-07T11:46:18.975Z,95619.97
2022-09-07T11:48:52.024Z,95629.38
2022-09-07T11:51:24.905Z,95628.88
2022-09-07T11:53:58.211Z,95619.75
2022-09-07T11:56:36.400Z,95622.97
2022-09-07T11:59:37.026Z,95613.19
2022-09-07T12:02:42.026Z,95611.13
2022-09-07T12:05:21.830Z,95595.47
2022-09-07T12:08:08.047Z,95581.59
2022-09-07T12:10:54.267Z,95608.16
2022-09-07T12:13:50.955Z,95591.22
2022-09-07T12:16:24.187Z,95595.69
2022-09-07T12:19:16.949Z,95592.78
2022-09-07T12:21:48.781Z,95566.88
2022-09-07T12:24:43.191Z,95586.94
2022-09-07T12:27:41.153Z,95584.38
2022-09-07T12:30:44.572Z,95581.00
2022-09-07T12:33:30.763Z,95580.66
2022-09-07T12:36:00.890Z,95587.56
2022-09-07T12:39:10.480Z,95580.81
2022-09-07T12:41:44.611Z,95570.53
2022-09-07T12:44:20.989Z,95568.50
2022-09-07T12:46:52.946Z,95569.50
2022-09-07T12:49:48.255Z,95563.78
2022-09-07T12:52:38.876Z,95560.00
2022-09-07T12:55:27.988Z,95562.81
2022-09-07T12:58:17.194Z,95562.25
2022-09-07T13:01:06.474Z,95545.78
2022-09-07T13:03:51.351Z,95512.25
2022-09-07T13:09:34.052Z,95535.53
2022-09-07T13:12:07.204Z,95449.41
2022-09-07T13:14:39.540Z,95541.16
2022-09-07T13:17:42.473Z,95541.28
2022-09-07T13:20:30.238Z,95538.59
2022-09-07T13:23:31.324Z,95525.59
2022-09-07T13:26:01.390Z,95540.13
2022-09-07T13:28:49.477Z,95542.22
2022-09-07T13:31:50.933Z,95538.91
2022-09-07T13:34:41.156Z,95537.19
2022-09-07T13:37:17.592Z,95540.81
2022-09-07T13:39:48.191Z,95515.38
2022-09-07T13:42:22.630Z,95533.56
2022-09-07T13:44:56.811Z,95485.78
2022-09-07T13:47:42.538Z,95529.06
2022-09-07T13:50:23.295Z,95536.84
2022-09-07T13:53:07.158Z,95532.44
2022-09-07T13:55:42.914Z,95505.09
2022-09-07T13:58:17.887Z,95523.91
2022-09-07T14:00:54.109Z,95523.69
2022-09-07T14:03:25.212Z,95510.13
2022-09-07T14:06:26.824Z,95518.84
2022-09-07T14:08:57.243Z,95511.53
2022-09-07T14:11:27.352Z,95510.31
2022-09-07T14:14:13.793Z,95511.63
2022-09-07T14:16:44.938Z,95492.25
2022-09-07T14:19:19.609Z,95506.38
2022-09-07T14:21:56.110Z,95506.81
2022-09-07T14:24:31.352Z,95506.38
2022-09-07T14:27:00.148Z,95520.16
2022-09-07T14:29:31.218Z,95468.94
2022-09-07T14:32:00.769Z,95520.16
2022-09-07T14:34:34.848Z,95510.69
2022-09-07T14:37:07.084Z,95502.78
2022-09-07T14:39:39.819Z,95520.25
2022-09-07T14:42:08.332Z,95504.69
2022-09-07T14:44:39.014Z,95514.41
2022-09-07T14:47:13.151Z,95502.81
2022-09-07T14:49:43.757Z,95496.44
2022-09-07T14:52:21.216Z,95507.50
2022-09-07T14:54:52.705Z,95503.63
2022-09-07T14:57:30.431Z,95494.81
2022-09-07T14:59:59.348Z,95499.47
2022-09-07T15:02:35.032Z,95498.75
2022-09-07T15:05:34.529Z,95502.97
2022-09-07T15:08:03.851Z,95495.91
2022-09-07T15:10:36.857Z,95485.19
2022-09-07T15:13:07.390Z,95496.50
2022-09-07T15:15:37.468Z,95501.59
2022-09-07T15:18:27.419Z,95513.50
2022-09-07T15:20:56.695Z,95508.44
2022-09-07T15:23:24.550Z,95509.06
2022-09-07T15:25:54.130Z,95484.97
2022-09-07T15:34:03.488Z,95512.41
2022-09-07T15:36:32.680Z,95518.34
2022-09-07T15:39:01.134Z,95514.81
2022-09-07T15:41:29.609Z,95523.50
2022-09-07T15:43:57.853Z,95517.41
2022-09-07T15:46:26.220Z,95494.09
2022-09-07T15:48:56.890Z,95520.03
2022-09-07T15:54:15.878Z,95518.47
2022-09-07T15:57:48.088Z,95490.28
2022-09-07T15:59:32.489Z,95513.19
2022-09-07T16:02:00.713Z,95525.94
2022-09-07T16:04:28.972Z,95524.47
2022-09-07T16:06:56.930Z,95526.09
2022-09-07T16:09:26.580Z,95526.16
2022-09-07T16:11:54.762Z,95527.09
2022-09-07T16:14:23.051Z,95534.34
2022-09-07T16:19:41.006Z,95537.56
2022-09-07T16:22:09.647Z,95515.22
2022-09-07T16:24:39.144Z,95528.31
2022-09-07T16:27:07.175Z,95529.31
2022-09-07T16:29:35.060Z,95529.81
2022-09-07T16:34:51.257Z,95510.41
2022-09-07T16:37:19.185Z,95527.41
2022-09-07T16:39:48.420Z,95514.56
2022-09-07T16:42:16.284Z,95513.44
2022-09-07T16:44:44.139Z,95513.94
2022-09-07T16:47:12.789Z,95519.56
2022-09-07T16:49:40.620Z,95519.25
2022-09-07T16:52:10.995Z,95501.78
2022-09-07T16:54:38.994Z,95454.56
2022-09-07T16:57:08.248Z,95522.69
2022-09-07T16:59:36.232Z,95503.19
2022-09-07T17:02:04.109Z,95535.38
2022-09-07T17:04:31.990Z,95532.31
2022-09-07T17:06:59.877Z,95542.22
2022-09-07T17:09:28.709Z,95544.56
2022-09-07T17:11:56.573Z,95550.91
2022-09-07T17:14:25.805Z,95495.72
2022-09-07T17:16:53.787Z,95550.56
2022-09-07T17:19:30.049Z,95543.91
2022-09-07T17:21:59.783Z,95550.63
2022-09-07T17:24:27.765Z,95554.59
2022-09-07T17:26:55.673Z,95546.03
2022-09-07T17:29:24.921Z,95543.28
2022-09-07T17:34:40.668Z,95553.94
2022-09-07T17:37:09.383Z,95554.75
2022-09-07T17:39:38.709Z,95560.69
2022-09-07T17:42:07.354Z,95559.56
2022-09-07T17:44:38.484Z,95561.16
2022-09-07T17:47:07.095Z,95564.34
2022-09-07T17:49:35.063Z,95572.63
2022-09-07T17:52:03.411Z,95569.13
2022-09-07T17:54:31.979Z,95583.25
2022-09-07T17:56:59.964Z,95584.81
2022-09-07T18:02:17.468Z,95594.28
2022-09-07T18:04:45.618Z,95604.47
2022-09-07T18:07:13.520Z,95597.00
2022-09-07T18:09:41.434Z,95592.72
2022-09-07T18:12:09.378Z,95601.31
2022-09-07T18:14:37.293Z,95597.38
2022-09-07T18:17:06.188Z,95604.44
2022-09-07T18:19:36.379Z,95596.94
2022-09-07T18:22:04.730Z,95622.84
2022-09-07T18:24:33.239Z,95620.88
2022-09-07T18:27:04.944Z,95616.16
2022-09-07T18:29:34.258Z,95619.28
2022-09-07T18:32:05.576Z,95594.94
2022-09-07T18:34:37.596Z,95631.75
2022-09-07T18:37:06.083Z,95630.97
2022-09-07T18:39:35.753Z,95598.78
2022-09-07T18:42:03.958Z,95627.75
2022-09-07T18:47:27.586Z,95626.53
2022-09-07T18:49:58.031Z,95630.78
2022-09-07T18:55:14.364Z,95611.94
2022-09-07T18:57:42.268Z,95618.56
2022-09-07T19:00:12.214Z,95631.06
2022-09-07T19:02:40.128Z,95610.31
2022-09-07T19:07:59.795Z,95624.38
2022-09-07T19:10:27.782Z,95628.25
2022-09-07T19:12:56.426Z,95618.81
2022-09-07T19:15:24.339Z,95625.81
2022-09-07T19:17:52.245Z,95618.41
2022-09-07T19:20:21.581Z,95579.44
2022-09-07T19:22:49.441Z,95623.44
2022-09-07T19:25:19.324Z,95623.38
2022-09-07T19:27:47.193Z,95618.31
2022-09-07T19:30:15.528Z,95608.88
2022-09-07T19:32:43.488Z,95622.56
2022-09-07T19:35:11.335Z,95624.88
2022-09-07T19:37:40.587Z,95625.56
2022-09-07T19:40:14.775Z,95627.47
2022-09-07T19:42:46.385Z,95627.44
2022-09-07T19:45:15.118Z,95603.03
2022-09-07T19:47:43.017Z,95618.38
2022-09-07T19:50:11.177Z,95619.84
2022-09-07T19:52:40.390Z,95625.31
2022-09-07T19:55:09.685Z,95621.38
2022-09-07T19:57:37.532Z,95636.25
2022-09-07T20:00:06.692Z,95613.91
2022-09-07T20:02:34.526Z,95609.53
2022-09-07T20:05:02.355Z,95610.66
2022-09-07T20:07:30.191Z,95618.09
2022-09-07T20:09:59.422Z,95620.00
2022-09-07T20:12:27.291Z,95621.91
2022-09-07T20:14:55.204Z,95565.28
2022-09-07T20:17:23.056Z,95601.00
2022-09-07T20:19:51.627Z,95624.59
2022-09-07T20:22:19.476Z,95620.25
2022-09-07T20:24:47.381Z,95496.00
2022-09-07T20:27:16.622Z,95622.19
2022-09-07T20:29:44.592Z,95619.78
2022-09-07T20:32:12.424Z,95620.13
2022-09-07T20:34:40.328Z,95627.13
2022-09-07T20:37:08.156Z,95624.72
2022-09-07T20:39:39.319Z,95623.84
2022-09-07T20:42:08.011Z,95631.19
2022-09-07T20:44:37.250Z,95603.22
2022-09-07T20:47:05.311Z,95633.81
2022-09-07T20:49:33.228Z,95634.53
2022-09-07T20:52:01.119Z,95625.78
2022-09-07T20:54:28.991Z,95637.66
2022-09-07T20:56:59.189Z,95590.34
2022-09-07T20:59:29.929Z,95647.72
2022-09-07T21:01:59.243Z,95642.19
2022-09-07T21:04:27.524Z,95653.16
2022-09-07T21:06:55.437Z,95657.81
2022-09-07T21:09:23.276Z,95667.59
2022-09-07T21:11:55.104Z,95662.50
2022-09-07T21:14:24.979Z,95650.25
2022-09-07T21:16:52.796Z,95656.53
2022-09-07T21:19:22.283Z,95666.41
2022-09-07T21:21:50.162Z,95655.78
2022-09-07T21:24:19.697Z,95657.75
2022-09-07T21:26:47.615Z,95659.72
2022-09-07T21:29:18.662Z,95657.00
2022-09-07T21:31:46.816Z,95660.47
2022-09-07T21:34:15.660Z,95651.88
2022-09-07T21:36:45.444Z,95636.81
2022-09-07T21:39:14.677Z,95656.50
2022-09-07T21:41:42.975Z,95661.50
2022-09-07T21:44:12.887Z,95658.38
2022-09-07T21:46:40.888Z,95653.66
2022-09-07T21:49:09.184Z,95665.09
2022-09-07T21:51:37.919Z,95643.50
2022-09-07T21:54:07.592Z,95654.28
2022-09-07T21:56:35.551Z,95655.78
2022-09-07T21:59:04.691Z,95658.06
2022-09-07T22:01:33.036Z,95652.91
2022-09-07T22:04:02.810Z,95658.38
2022-09-07T22:06:32.475Z,95657.97
2022-09-07T22:09:00.543Z,95654.84
2022-09-07T22:11:30.813Z,95647.34
2022-09-07T22:14:00.365Z,95634.72
2022-09-07T22:16:28.473Z,95650.00
2022-09-07T22:18:56.565Z,95645.63
2022-09-07T22:21:26.251Z,95638.25
2022-09-07T22:23:56.951Z,95650.88
2022-09-07T22:26:26.708Z,95640.34
2022-09-07T22:28:56.220Z,95645.75
2022-09-07T22:31:25.863Z,95638.66
2022-09-07T22:33:55.090Z,95627.13
2022-09-07T22:36:24.703Z,95636.09
2022-09-07T22:38:56.020Z,95586.59
2022-09-07T22:41:26.149Z,95579.16
2022-09-07T22:43:56.047Z,95624.41
2022-09-07T22:46:25.697Z,95617.34
2022-09-07T22:48:55.351Z,95622.00
2022-09-07T22:51:25.295Z,95619.25
2022-09-07T22:53:54.138Z,95630.56
2022-09-07T22:56:24.445Z,95629.69
2022-09-07T22:58:53.845Z,95634.22
2022-09-07T23:01:23.581Z,95587.72
2022-09-07T23:03:52.043Z,95629.28
2022-09-07T23:06:28.627Z,95638.72
2022-09-07T23:08:59.013Z,95638.81
2022-09-07T23:11:27.820Z,95632.16
2022-09-07T23:13:56.830Z,95598.75
2022-09-07T23:16:27.419Z,95634.22
2022-09-07T23:18:56.180Z,95634.97
2022-09-07T23:21:24.088Z,95634.09
2022-09-07T23:23:53.126Z,95578.13
2022-09-07T23:26:21.707Z,95629.94
2022-09-07T23:28:52.360Z,95623.63
2022-09-07T23:31:20.466Z,95628.28
2022-09-07T23:33:50.248Z,95633.34
2022-09-07T23:36:18.608Z,95630.63
2022-09-07T23:38:46.876Z,95631.34
2022-09-07T23:41:15.319Z,95631.69
2022-09-07T23:43:44.087Z,95637.47
2022-09-07T23:46:13.116Z,95628.84
2022-09-07T23:48:41.238Z,95614.19
2022-09-07T23:51:10.464Z,95615.44
2022-09-07T23:53:38.511Z,95617.03
2022-09-07T23:56:07.338Z,95617.38
2022-09-07T23:58:35.484Z,95604.78
